sensor_id;sensor_type;location;lat;lon;timestamp;temperature;humidity
2174;DHT22;1093;51.424;11.764;2023-05-10T00:01:30;11.70;1.40
2174;DHT22;1093;51.424;11.764;2023-05-10T00:03:56;11.80;1.40
2174;DHT22;1093;51.424;11.764;2023-05-10T00:06:23;11.80;1.40
2174;DHT22;1093;51.424;11.764;2023-05-10T00:08:50;11.80;1.40
2174;DHT22;1093;51.424;11.764;2023-05-10T00:11:16;11.80;1.40
2174;DHT22;1093;51.424;11.764;2023-05-10T00:13:43;11.80;1.40
2174;DHT22;1093;51.424;11.764;2023-05-10T00:16:11;11.70;1.40
2174;DHT22;1093;51.424;11.764;2023-05-10T00:18:38;11.60;1.40
2174;DHT22;1093;51.424;11.764;2023-05-10T00:21:05;11.60;1.40
2174;DHT22;1093;51.424;11.764;2023-05-10T00:23:32;11.50;1.40
2174;DHT22;1093;51.424;11.764;2023-05-10T00:25:59;11.50;1.40
2174;DHT22;1093;51.424;11.764;2023-05-10T00:28:27;11.40;1.40
2174;DHT22;1093;51.424;11.764;2023-05-10T00:30:55;11.40;1.40
2174;DHT22;1093;51.424;11.764;2023-05-10T00:33:23;11.40;1.40
2174;DHT22;1093;51.424;11.764;2023-05-10T00:35:50;11.30;1.40
2174;DHT22;1093;51.424;11.764;2023-05-10T00:38:16;11.30;1.40
2174;DHT22;1093;51.424;11.764;2023-05-10T00:40:43;11.30;1.40
2174;DHT22;1093;51.424;11.764;2023-05-10T00:43:10;11.30;1.40
2174;DHT22;1093;51.424;11.764;2023-05-10T00:45:37;11.30;1.40
2174;DHT22;1093;51.424;11.764;2023-05-10T00:48:07;11.30;1.40
2174;DHT22;1093;51.424;11.764;2023-05-10T00:50:35;11.30;1.40
2174;DHT22;1093;51.424;11.764;2023-05-10T00:53:02;11.30;1.40
2174;DHT22;1093;51.424;11.764;2023-05-10T00:55:30;11.30;1.40
2174;DHT22;1093;51.424;11.764;2023-05-10T00:57:57;11.20;1.40
2174;DHT22;1093;51.424;11.764;2023-05-10T01:00:24;11.20;1.40
2174;DHT22;1093;51.424;11.764;2023-05-10T01:02:53;11.20;1.40
2174;DHT22;1093;51.424;11.764;2023-05-10T01:05:20;11.10;1.40
2174;DHT22;1093;51.424;11.764;2023-05-10T01:07:48;11.10;1.40
2174;DHT22;1093;51.424;11.764;2023-05-10T01:10:15;11.00;1.40
2174;DHT22;1093;51.424;11.764;2023-05-10T01:12:45;11.00;1.40
2174;DHT22;1093;51.424;11.764;2023-05-10T01:15:14;10.90;1.40
2174;DHT22;1093;51.424;11.764;2023-05-10T01:17:44;10.80;1.40
2174;DHT22;1093;51.424;11.764;2023-05-10T01:20:12;10.90;1.40
2174;DHT22;1093;51.424;11.764;2023-05-10T01:23:07;10.80;1.40
2174;DHT22;1093;51.424;11.764;2023-05-10T01:25:56;10.80;1.40
2174;DHT22;1093;51.424;11.764;2023-05-10T01:29:06;10.80;1.40
2174;DHT22;1093;51.424;11.764;2023-05-10T01:34:54;10.80;1.40
2174;DHT22;1093;51.424;11.764;2023-05-10T01:37:31;10.70;1.40
2174;DHT22;1093;51.424;11.764;2023-05-10T01:40:03;10.70;1.40
2174;DHT22;1093;51.424;11.764;2023-05-10T01:42:36;10.60;1.40
2174;DHT22;1093;51.424;11.764;2023-05-10T01:45:10;10.60;1.40
2174;DHT22;1093;51.424;11.764;2023-05-10T01:47:43;10.60;1.40
2174;DHT22;1093;51.424;11.764;2023-05-10T01:50:15;10.60;1.40
2174;DHT22;1093;51.424;11.764;2023-05-10T01:52:46;10.50;1.40
2174;DHT22;1093;51.424;11.764;2023-05-10T01:55:16;10.50;1.40
2174;DHT22;1093;51.424;11.764;2023-05-10T01:57:46;10.50;1.40
2174;DHT22;1093;51.424;11.764;2023-05-10T02:00:14;10.50;1.40
2174;DHT22;1093;51.424;11.764;2023-05-10T02:02:45;10.40;1.40
2174;DHT22;1093;51.424;11.764;2023-05-10T02:05:14;10.40;1.40
2174;DHT22;1093;51.424;11.764;2023-05-10T02:07:42;10.50;1.40
2174;DHT22;1093;51.424;11.764;2023-05-10T02:10:10;10.40;1.40
2174;DHT22;1093;51.424;11.764;2023-05-10T02:12:41;10.40;1.40
2174;DHT22;1093;51.424;11.764;2023-05-10T02:15:08;10.40;1.40
2174;DHT22;1093;51.424;11.764;2023-05-10T02:17:37;10.40;1.40
2174;DHT22;1093;51.424;11.764;2023-05-10T02:20:08;10.40;1.40
2174;DHT22;1093;51.424;11.764;2023-05-10T02:22:36;10.40;1.40
2174;DHT22;1093;51.424;11.764;2023-05-10T02:25:04;10.40;1.40
2174;DHT22;1093;51.424;11.764;2023-05-10T02:27:31;10.30;1.40
2174;DHT22;1093;51.424;11.764;2023-05-10T02:29:58;10.30;1.40
2174;DHT22;1093;51.424;11.764;2023-05-10T02:32:26;10.30;1.40
2174;DHT22;1093;51.424;11.764;2023-05-10T02:34:54;10.30;1.40
2174;DHT22;1093;51.424;11.764;2023-05-10T02:37:24;10.20;1.40
2174;DHT22;1093;51.424;11.764;2023-05-10T02:39:54;10.20;1.40
2174;DHT22;1093;51.424;11.764;2023-05-10T02:42:26;10.20;1.40
2174;DHT22;1093;51.424;11.764;2023-05-10T02:44:55;10.10;1.40
2174;DHT22;1093;51.424;11.764;2023-05-10T02:47:23;10.10;1.40
2174;DHT22;1093;51.424;11.764;2023-05-10T02:49:49;10.10;1.40
2174;DHT22;1093;51.424;11.764;2023-05-10T02:52:21;10.10;1.40
2174;DHT22;1093;51.424;11.764;2023-05-10T02:54:54;10.10;1.40
2174;DHT22;1093;51.424;11.764;2023-05-10T02:57:25;10.10;1.40
2174;DHT22;1093;51.424;11.764;2023-05-10T02:59:55;10.20;1.40
2174;DHT22;1093;51.424;11.764;2023-05-10T03:02:22;10.10;1.40
2174;DHT22;1093;51.424;11.764;2023-05-10T03:04:48;10.20;1.40
2174;DHT22;1093;51.424;11.764;2023-05-10T03:07:15;10.20;1.40
2174;DHT22;1093;51.424;11.764;2023-05-10T03:09:44;10.20;1.40
2174;DHT22;1093;51.424;11.764;2023-05-10T03:12:18;10.20;1.40
2174;DHT22;1093;51.424;11.764;2023-05-10T03:14:52;10.20;1.40
2174;DHT22;1093;51.424;11.764;2023-05-10T03:17:25;10.20;1.40
2174;DHT22;1093;51.424;11.764;2023-05-10T03:19:56;10.10;1.40
2174;DHT22;1093;51.424;11.764;2023-05-10T03:22:26;10.10;1.40
2174;DHT22;1093;51.424;11.764;2023-05-10T03:24:57;10.10;1.40
2174;DHT22;1093;51.424;11.764;2023-05-10T03:27:26;10.10;1.40
2174;DHT22;1093;51.424;11.764;2023-05-10T03:29:55;10.20;1.40
2174;DHT22;1093;51.424;11.764;2023-05-10T03:32:22;10.10;1.40
2174;DHT22;1093;51.424;11.764;2023-05-10T03:34:49;10.10;1.40
2174;DHT22;1093;51.424;11.764;2023-05-10T03:37:15;10.20;1.40
2174;DHT22;1093;51.424;11.764;2023-05-10T03:39:42;10.10;1.40
2174;DHT22;1093;51.424;11.764;2023-05-10T03:42:09;10.20;1.40
2174;DHT22;1093;51.424;11.764;2023-05-10T03:44:38;10.20;1.40
2174;DHT22;1093;51.424;11.764;2023-05-10T03:47:05;10.20;1.40
2174;DHT22;1093;51.424;11.764;2023-05-10T03:49:32;10.20;1.40
2174;DHT22;1093;51.424;11.764;2023-05-10T03:51:59;10.20;1.40
2174;DHT22;1093;51.424;11.764;2023-05-10T03:54:26;10.20;1.40
2174;DHT22;1093;51.424;11.764;2023-05-10T03:56:52;10.20;1.40
2174;DHT22;1093;51.424;11.764;2023-05-10T03:59:19;10.30;1.40
2174;DHT22;1093;51.424;11.764;2023-05-10T04:01:47;10.30;1.40
2174;DHT22;1093;51.424;11.764;2023-05-10T04:04:14;10.30;1.40
2174;DHT22;1093;51.424;11.764;2023-05-10T04:06:40;10.30;1.40
2174;DHT22;1093;51.424;11.764;2023-05-10T04:09:07;10.40;1.40
2174;DHT22;1093;51.424;11.764;2023-05-10T04:11:34;10.50;1.40
2174;DHT22;1093;51.424;11.764;2023-05-10T04:14:01;10.60;1.40
2174;DHT22;1093;51.424;11.764;2023-05-10T04:16:28;10.70;1.40
2174;DHT22;1093;51.424;11.764;2023-05-10T04:18:56;10.80;1.40
2174;DHT22;1093;51.424;11.764;2023-05-10T04:21:22;10.90;1.40
2174;DHT22;1093;51.424;11.764;2023-05-10T04:23:50;10.90;1.40
2174;DHT22;1093;51.424;11.764;2023-05-10T04:26:16;11.00;1.40
2174;DHT22;1093;51.424;11.764;2023-05-10T04:28:43;11.20;1.40
2174;DHT22;1093;51.424;11.764;2023-05-10T04:31:10;11.20;1.40
2174;DHT22;1093;51.424;11.764;2023-05-10T04:33:37;11.30;1.40
2174;DHT22;1093;51.424;11.764;2023-05-10T04:36:06;11.40;1.40
2174;DHT22;1093;51.424;11.764;2023-05-10T04:38:32;11.60;1.40
2174;DHT22;1093;51.424;11.764;2023-05-10T04:41:06;11.60;1.40
2174;DHT22;1093;51.424;11.764;2023-05-10T04:43:33;11.60;1.40
2174;DHT22;1093;51.424;11.764;2023-05-10T04:46:00;11.70;1.40
2174;DHT22;1093;51.424;11.764;2023-05-10T04:48:27;11.70;1.40
2174;DHT22;1093;51.424;11.764;2023-05-10T04:50:53;11.80;1.40
2174;DHT22;1093;51.424;11.764;2023-05-10T04:53:22;11.90;1.40
2174;DHT22;1093;51.424;11.764;2023-05-10T04:55:48;11.90;1.40
2174;DHT22;1093;51.424;11.764;2023-05-10T04:58:15;12.00;1.40
2174;DHT22;1093;51.424;11.764;2023-05-10T05:00:42;12.00;1.40
2174;DHT22;1093;51.424;11.764;2023-05-10T05:03:09;12.10;1.40
2174;DHT22;1093;51.424;11.764;2023-05-10T05:05:36;12.10;1.40
2174;DHT22;1093;51.424;11.764;2023-05-10T05:08:04;12.20;1.40
2174;DHT22;1093;51.424;11.764;2023-05-10T05:10:32;12.20;1.40
2174;DHT22;1093;51.424;11.764;2023-05-10T05:12:59;12.30;1.40
2174;DHT22;1093;51.424;11.764;2023-05-10T05:15:25;12.30;1.40
2174;DHT22;1093;51.424;11.764;2023-05-10T05:17:53;12.40;1.40
2174;DHT22;1093;51.424;11.764;2023-05-10T05:20:20;12.40;1.40
2174;DHT22;1093;51.424;11.764;2023-05-10T05:22:46;12.40;1.40
2174;DHT22;1093;51.424;11.764;2023-05-10T05:25:13;12.50;1.40
2174;DHT22;1093;51.424;11.764;2023-05-10T05:27:41;12.50;1.40
2174;DHT22;1093;51.424;11.764;2023-05-10T05:30:09;12.50;1.40
2174;DHT22;1093;51.424;11.764;2023-05-10T05:32:36;12.60;1.40
2174;DHT22;1093;51.424;11.764;2023-05-10T05:35:03;12.60;1.40
2174;DHT22;1093;51.424;11.764;2023-05-10T05:37:30;12.60;1.40
2174;DHT22;1093;51.424;11.764;2023-05-10T05:39:57;12.70;1.40
2174;DHT22;1093;51.424;11.764;2023-05-10T05:42:23;12.70;1.40
2174;DHT22;1093;51.424;11.764;2023-05-10T05:44:52;12.80;1.40
2174;DHT22;1093;51.424;11.764;2023-05-10T05:47:19;12.90;1.40
2174;DHT22;1093;51.424;11.764;2023-05-10T05:49:46;12.90;1.40
2174;DHT22;1093;51.424;11.764;2023-05-10T05:52:13;13.00;1.40
2174;DHT22;1093;51.424;11.764;2023-05-10T05:54:39;13.00;1.40
2174;DHT22;1093;51.424;11.764;2023-05-10T05:57:06;13.00;1.40
2174;DHT22;1093;51.424;11.764;2023-05-10T05:59:33;13.10;1.40
2174;DHT22;1093;51.424;11.764;2023-05-10T06:02:01;13.20;1.40
2174;DHT22;1093;51.424;11.764;2023-05-10T06:04:28;13.20;1.40
2174;DHT22;1093;51.424;11.764;2023-05-10T06:06:54;13.20;1.40
2174;DHT22;1093;51.424;11.764;2023-05-10T06:09:21;13.30;1.40
2174;DHT22;1093;51.424;11.764;2023-05-10T06:11:49;13.40;1.40
2174;DHT22;1093;51.424;11.764;2023-05-10T06:14:16;13.40;1.40
2174;DHT22;1093;51.424;11.764;2023-05-10T06:16:43;13.40;1.40
2174;DHT22;1093;51.424;11.764;2023-05-10T06:19:11;13.50;1.40
2174;DHT22;1093;51.424;11.764;2023-05-10T06:21:38;13.50;1.40
2174;DHT22;1093;51.424;11.764;2023-05-10T06:24:05;13.50;1.40
2174;DHT22;1093;51.424;11.764;2023-05-10T06:26:32;13.50;1.40
2174;DHT22;1093;51.424;11.764;2023-05-10T06:28:59;13.60;1.40
2174;DHT22;1093;51.424;11.764;2023-05-10T06:31:26;13.60;1.40
2174;DHT22;1093;51.424;11.764;2023-05-10T06:33:53;13.70;1.40
2174;DHT22;1093;51.424;11.764;2023-05-10T06:36:21;13.60;1.40
2174;DHT22;1093;51.424;11.764;2023-05-10T06:38:50;13.60;1.40
2174;DHT22;1093;51.424;11.764;2023-05-10T06:41:16;13.70;1.40
2174;DHT22;1093;51.424;11.764;2023-05-10T06:43:43;13.70;1.40
2174;DHT22;1093;51.424;11.764;2023-05-10T06:46:10;13.70;1.40
2174;DHT22;1093;51.424;11.764;2023-05-10T06:48:37;13.80;1.40
2174;DHT22;1093;51.424;11.764;2023-05-10T06:51:03;13.80;1.40
2174;DHT22;1093;51.424;11.764;2023-05-10T06:53:31;13.80;1.40
2174;DHT22;1093;51.424;11.764;2023-05-10T06:55:59;13.80;1.40
2174;DHT22;1093;51.424;11.764;2023-05-10T06:58:25;13.90;1.40
2174;DHT22;1093;51.424;11.764;2023-05-10T07:00:52;13.90;1.40
2174;DHT22;1093;51.424;11.764;2023-05-10T07:03:19;13.90;1.40
2174;DHT22;1093;51.424;11.764;2023-05-10T07:05:45;13.90;1.40
2174;DHT22;1093;51.424;11.764;2023-05-10T07:08:12;13.90;1.40
2174;DHT22;1093;51.424;11.764;2023-05-10T07:10:41;14.00;1.40
2174;DHT22;1093;51.424;11.764;2023-05-10T07:13:08;14.00;1.40
2174;DHT22;1093;51.424;11.764;2023-05-10T07:15:35;14.10;1.40
2174;DHT22;1093;51.424;11.764;2023-05-10T07:18:01;14.10;1.40
2174;DHT22;1093;51.424;11.764;2023-05-10T07:20:30;14.10;1.40
2174;DHT22;1093;51.424;11.764;2023-05-10T07:22:56;14.20;1.40
2174;DHT22;1093;51.424;11.764;2023-05-10T07:25:23;14.20;1.40
2174;DHT22;1093;51.424;11.764;2023-05-10T07:27:51;14.30;1.40
2174;DHT22;1093;51.424;11.764;2023-05-10T07:30:18;14.40;1.40
2174;DHT22;1093;51.424;11.764;2023-05-10T07:32:45;14.50;1.40
2174;DHT22;1093;51.424;11.764;2023-05-10T07:35:11;14.60;1.40
2174;DHT22;1093;51.424;11.764;2023-05-10T07:37:38;14.70;1.40
2174;DHT22;1093;51.424;11.764;2023-05-10T07:40:06;14.80;1.40
2174;DHT22;1093;51.424;11.764;2023-05-10T07:42:33;15.00;1.40
2174;DHT22;1093;51.424;11.764;2023-05-10T07:45:01;15.10;1.40
2174;DHT22;1093;51.424;11.764;2023-05-10T07:47:28;15.20;1.40
2174;DHT22;1093;51.424;11.764;2023-05-10T07:49:55;15.30;1.40
2174;DHT22;1093;51.424;11.764;2023-05-10T07:52:22;15.40;1.40
2174;DHT22;1093;51.424;11.764;2023-05-10T07:54:48;15.50;1.40
2174;DHT22;1093;51.424;11.764;2023-05-10T07:57:15;15.50;1.40
2174;DHT22;1093;51.424;11.764;2023-05-10T07:59:43;15.60;1.40
2174;DHT22;1093;51.424;11.764;2023-05-10T08:02:11;15.60;1.40
2174;DHT22;1093;51.424;11.764;2023-05-10T08:04:38;15.70;1.40
2174;DHT22;1093;51.424;11.764;2023-05-10T08:07:05;15.70;1.40
2174;DHT22;1093;51.424;11.764;2023-05-10T08:09:31;15.80;1.40
2174;DHT22;1093;51.424;11.764;2023-05-10T08:11:58;15.80;1.40
2174;DHT22;1093;51.424;11.764;2023-05-10T08:14:26;15.90;1.40
2174;DHT22;1093;51.424;11.764;2023-05-10T08:16:53;15.90;1.40
2174;DHT22;1093;51.424;11.764;2023-05-10T08:19:21;15.90;1.40
2174;DHT22;1093;51.424;11.764;2023-05-10T08:21:51;15.90;1.40
2174;DHT22;1093;51.424;11.764;2023-05-10T08:24:18;16.00;1.40
2174;DHT22;1093;51.424;11.764;2023-05-10T08:26:46;16.10;1.40
2174;DHT22;1093;51.424;11.764;2023-05-10T08:29:13;16.10;1.40
2174;DHT22;1093;51.424;11.764;2023-05-10T08:31:39;16.20;1.40
2174;DHT22;1093;51.424;11.764;2023-05-10T08:34:06;16.20;1.40
2174;DHT22;1093;51.424;11.764;2023-05-10T08:36:34;16.20;1.40
2174;DHT22;1093;51.424;11.764;2023-05-10T08:39:01;16.20;1.40
2174;DHT22;1093;51.424;11.764;2023-05-10T08:41:29;16.30;1.40
2174;DHT22;1093;51.424;11.764;2023-05-10T08:43:59;16.40;1.40
2174;DHT22;1093;51.424;11.764;2023-05-10T08:46:31;16.40;1.40
2174;DHT22;1093;51.424;11.764;2023-05-10T08:49:02;16.40;1.40
2174;DHT22;1093;51.424;11.764;2023-05-10T08:51:32;16.50;1.40
2174;DHT22;1093;51.424;11.764;2023-05-10T08:54:03;16.60;1.40
2174;DHT22;1093;51.424;11.764;2023-05-10T08:56:30;16.70;1.40
2174;DHT22;1093;51.424;11.764;2023-05-10T08:58:57;16.70;1.40
2174;DHT22;1093;51.424;11.764;2023-05-10T09:01:25;16.80;1.40
2174;DHT22;1093;51.424;11.764;2023-05-10T09:03:53;16.80;1.40
2174;DHT22;1093;51.424;11.764;2023-05-10T09:06:20;16.80;1.40
2174;DHT22;1093;51.424;11.764;2023-05-10T09:08:47;16.80;1.40
2174;DHT22;1093;51.424;11.764;2023-05-10T09:11:16;16.80;1.40
2174;DHT22;1093;51.424;11.764;2023-05-10T09:13:44;16.80;1.40
2174;DHT22;1093;51.424;11.764;2023-05-10T09:16:11;16.90;1.40
2174;DHT22;1093;51.424;11.764;2023-05-10T09:18:38;17.00;1.40
2174;DHT22;1093;51.424;11.764;2023-05-10T09:21:04;17.00;1.40
2174;DHT22;1093;51.424;11.764;2023-05-10T09:23:31;17.00;1.40
2174;DHT22;1093;51.424;11.764;2023-05-10T09:26:05;17.10;1.40
2174;DHT22;1093;51.424;11.764;2023-05-10T09:28:34;17.10;1.40
2174;DHT22;1093;51.424;11.764;2023-05-10T09:31:01;17.20;1.40
2174;DHT22;1093;51.424;11.764;2023-05-10T09:33:27;17.30;1.40
2174;DHT22;1093;51.424;11.764;2023-05-10T09:35:54;17.40;1.40
2174;DHT22;1093;51.424;11.764;2023-05-10T09:38:21;17.40;1.40
2174;DHT22;1093;51.424;11.764;2023-05-10T09:40:52;17.40;1.40
2174;DHT22;1093;51.424;11.764;2023-05-10T09:43:20;17.50;1.40
2174;DHT22;1093;51.424;11.764;2023-05-10T09:45:49;17.40;1.40
2174;DHT22;1093;51.424;11.764;2023-05-10T09:48:16;17.40;1.40
2174;DHT22;1093;51.424;11.764;2023-05-10T09:50:42;17.40;1.40
2174;DHT22;1093;51.424;11.764;2023-05-10T09:53:09;17.40;1.40
2174;DHT22;1093;51.424;11.764;2023-05-10T09:55:45;17.40;1.40
2174;DHT22;1093;51.424;11.764;2023-05-10T09:58:12;17.40;1.40
2174;DHT22;1093;51.424;11.764;2023-05-10T10:00:40;17.40;1.40
2174;DHT22;1093;51.424;11.764;2023-05-10T10:03:14;17.40;1.40
2174;DHT22;1093;51.424;11.764;2023-05-10T10:05:42;17.40;1.40
2174;DHT22;1093;51.424;11.764;2023-05-10T10:08:09;17.40;1.40
2174;DHT22;1093;51.424;11.764;2023-05-10T10:10:36;17.30;1.40
2174;DHT22;1093;51.424;11.764;2023-05-10T10:13:04;17.40;1.40
2174;DHT22;1093;51.424;11.764;2023-05-10T10:15:32;17.40;1.40
2174;DHT22;1093;51.424;11.764;2023-05-10T10:17:59;17.40;1.40
2174;DHT22;1093;51.424;11.764;2023-05-10T10:20:28;17.40;1.40
2174;DHT22;1093;51.424;11.764;2023-05-10T10:22:55;17.40;1.40
2174;DHT22;1093;51.424;11.764;2023-05-10T10:25:22;17.40;1.40
2174;DHT22;1093;51.424;11.764;2023-05-10T10:28:01;17.40;1.40
2174;DHT22;1093;51.424;11.764;2023-05-10T10:30:37;17.50;1.40
2174;DHT22;1093;51.424;11.764;2023-05-10T10:33:25;17.50;1.40
2174;DHT22;1093;51.424;11.764;2023-05-10T10:35:58;17.50;1.40
2174;DHT22;1093;51.424;11.764;2023-05-10T10:38:27;17.60;1.40
2174;DHT22;1093;51.424;11.764;2023-05-10T10:41:04;17.60;1.40
2174;DHT22;1093;51.424;11.764;2023-05-10T10:43:34;17.50;1.40
2174;DHT22;1093;51.424;11.764;2023-05-10T10:46:14;17.60;1.40
2174;DHT22;1093;51.424;11.764;2023-05-10T10:48:47;17.60;1.40
2174;DHT22;1093;51.424;11.764;2023-05-10T10:51:16;17.70;1.40
2174;DHT22;1093;51.424;11.764;2023-05-10T10:53:43;17.70;1.40
2174;DHT22;1093;51.424;11.764;2023-05-10T10:56:11;17.70;1.40
2174;DHT22;1093;51.424;11.764;2023-05-10T10:58:40;17.70;1.40
2174;DHT22;1093;51.424;11.764;2023-05-10T11:01:12;17.80;1.40
2174;DHT22;1093;51.424;11.764;2023-05-10T11:03:39;17.90;1.40
2174;DHT22;1093;51.424;11.764;2023-05-10T11:06:06;17.90;1.40
2174;DHT22;1093;51.424;11.764;2023-05-10T11:08:41;17.90;1.40
2174;DHT22;1093;51.424;11.764;2023-05-10T11:11:09;17.90;1.40
2174;DHT22;1093;51.424;11.764;2023-05-10T11:13:40;18.00;1.40
2174;DHT22;1093;51.424;11.764;2023-05-10T11:16:13;18.00;1.40
2174;DHT22;1093;51.424;11.764;2023-05-10T11:18:40;18.10;1.40
2174;DHT22;1093;51.424;11.764;2023-05-10T11:21:09;18.10;1.40
2174;DHT22;1093;51.424;11.764;2023-05-10T11:23:52;18.20;1.40
2174;DHT22;1093;51.424;11.764;2023-05-10T11:26:21;18.20;1.40
2174;DHT22;1093;51.424;11.764;2023-05-10T11:28:52;18.20;1.40
2174;DHT22;1093;51.424;11.764;2023-05-10T11:31:20;18.20;1.40
2174;DHT22;1093;51.424;11.764;2023-05-10T11:33:49;18.30;1.40
2174;DHT22;1093;51.424;11.764;2023-05-10T11:36:17;18.30;1.40
2174;DHT22;1093;51.424;11.764;2023-05-10T11:38:44;18.20;1.40
2174;DHT22;1093;51.424;11.764;2023-05-10T11:41:13;18.30;1.40
2174;DHT22;1093;51.424;11.764;2023-05-10T11:43:40;18.30;1.40
2174;DHT22;1093;51.424;11.764;2023-05-10T11:46:09;18.20;1.40
2174;DHT22;1093;51.424;11.764;2023-05-10T11:48:39;18.20;1.40
2174;DHT22;1093;51.424;11.764;2023-05-10T11:51:06;18.20;1.40
2174;DHT22;1093;51.424;11.764;2023-05-10T11:53:33;18.20;1.40
2174;DHT22;1093;51.424;11.764;2023-05-10T11:56:04;18.20;1.40
2174;DHT22;1093;51.424;11.764;2023-05-10T11:58:33;18.20;1.40
2174;DHT22;1093;51.424;11.764;2023-05-10T12:01:00;18.10;1.40
2174;DHT22;1093;51.424;11.764;2023-05-10T12:03:27;18.10;1.40
2174;DHT22;1093;51.424;11.764;2023-05-10T12:05:55;18.00;1.40
2174;DHT22;1093;51.424;11.764;2023-05-10T12:08:23;18.00;1.40
2174;DHT22;1093;51.424;11.764;2023-05-10T12:10:50;18.00;1.40
2174;DHT22;1093;51.424;11.764;2023-05-10T12:13:17;17.90;1.40
2174;DHT22;1093;51.424;11.764;2023-05-10T12:15:47;17.90;1.40
2174;DHT22;1093;51.424;11.764;2023-05-10T12:18:14;18.00;1.40
2174;DHT22;1093;51.424;11.764;2023-05-10T12:20:41;17.90;1.40
2174;DHT22;1093;51.424;11.764;2023-05-10T12:23:09;18.00;1.40
2174;DHT22;1093;51.424;11.764;2023-05-10T12:25:37;18.00;1.40
2174;DHT22;1093;51.424;11.764;2023-05-10T12:28:05;18.10;1.40
2174;DHT22;1093;51.424;11.764;2023-05-10T12:30:35;18.00;1.40
2174;DHT22;1093;51.424;11.764;2023-05-10T12:33:09;18.00;1.40
2174;DHT22;1093;51.424;11.764;2023-05-10T12:35:46;18.00;1.40
2174;DHT22;1093;51.424;11.764;2023-05-10T12:38:27;18.00;1.40
2174;DHT22;1093;51.424;11.764;2023-05-10T12:40:55;18.00;1.40
2174;DHT22;1093;51.424;11.764;2023-05-10T12:43:22;18.00;1.40
2174;DHT22;1093;51.424;11.764;2023-05-10T12:45:48;18.00;1.40
2174;DHT22;1093;51.424;11.764;2023-05-10T12:48:17;18.00;1.40
2174;DHT22;1093;51.424;11.764;2023-05-10T12:50:43;18.00;1.40
2174;DHT22;1093;51.424;11.764;2023-05-10T12:53:10;18.10;1.40
2174;DHT22;1093;51.424;11.764;2023-05-10T12:55:38;18.10;1.40
2174;DHT22;1093;51.424;11.764;2023-05-10T12:58:07;18.10;1.40
2174;DHT22;1093;51.424;11.764;2023-05-10T13:00:34;18.20;1.40
2174;DHT22;1093;51.424;11.764;2023-05-10T13:03:03;18.20;1.40
2174;DHT22;1093;51.424;11.764;2023-05-10T13:05:32;18.20;1.40
2174;DHT22;1093;51.424;11.764;2023-05-10T13:07:58;18.20;1.40
2174;DHT22;1093;51.424;11.764;2023-05-10T13:10:25;18.30;1.40
2174;DHT22;1093;51.424;11.764;2023-05-10T13:12:52;18.30;1.40
2174;DHT22;1093;51.424;11.764;2023-05-10T13:15:19;18.30;1.40
2174;DHT22;1093;51.424;11.764;2023-05-10T13:17:45;18.30;1.40
2174;DHT22;1093;51.424;11.764;2023-05-10T13:20:12;18.30;1.40
2174;DHT22;1093;51.424;11.764;2023-05-10T13:22:40;18.40;1.40
2174;DHT22;1093;51.424;11.764;2023-05-10T13:25:08;18.40;1.40
2174;DHT22;1093;51.424;11.764;2023-05-10T13:27:35;18.40;1.40
2174;DHT22;1093;51.424;11.764;2023-05-10T13:30:02;18.40;1.40
2174;DHT22;1093;51.424;11.764;2023-05-10T13:32:29;18.30;1.40
2174;DHT22;1093;51.424;11.764;2023-05-10T13:34:56;18.40;1.40
2174;DHT22;1093;51.424;11.764;2023-05-10T13:37:23;18.40;1.40
2174;DHT22;1093;51.424;11.764;2023-05-10T13:39:51;18.40;1.40
2174;DHT22;1093;51.424;11.764;2023-05-10T13:42:18;18.40;1.40
2174;DHT22;1093;51.424;11.764;2023-05-10T13:44:44;18.40;1.40
2174;DHT22;1093;51.424;11.764;2023-05-10T13:47:11;18.40;1.40
2174;DHT22;1093;51.424;11.764;2023-05-10T13:49:38;18.40;1.40
2174;DHT22;1093;51.424;11.764;2023-05-10T13:52:05;18.50;1.40
2174;DHT22;1093;51.424;11.764;2023-05-10T13:54:32;18.40;1.40
2174;DHT22;1093;51.424;11.764;2023-05-10T13:57:00;18.50;1.40
2174;DHT22;1093;51.424;11.764;2023-05-10T13:59:27;18.50;1.40
2174;DHT22;1093;51.424;11.764;2023-05-10T14:01:53;18.50;1.40
2174;DHT22;1093;51.424;11.764;2023-05-10T14:04:20;18.60;1.40
2174;DHT22;1093;51.424;11.764;2023-05-10T14:06:47;18.50;1.40
2174;DHT22;1093;51.424;11.764;2023-05-10T14:09:13;18.50;1.40
2174;DHT22;1093;51.424;11.764;2023-05-10T14:11:40;18.60;1.40
2174;DHT22;1093;51.424;11.764;2023-05-10T14:14:10;18.60;1.40
2174;DHT22;1093;51.424;11.764;2023-05-10T14:16:36;18.70;1.40
2174;DHT22;1093;51.424;11.764;2023-05-10T14:19:03;18.70;1.40
2174;DHT22;1093;51.424;11.764;2023-05-10T14:21:30;18.70;1.40
2174;DHT22;1093;51.424;11.764;2023-05-10T14:23:56;18.80;1.40
2174;DHT22;1093;51.424;11.764;2023-05-10T14:26:23;18.80;1.40
2174;DHT22;1093;51.424;11.764;2023-05-10T14:28:50;18.80;1.40
2174;DHT22;1093;51.424;11.764;2023-05-10T14:31:18;18.80;1.40
2174;DHT22;1093;51.424;11.764;2023-05-10T14:33:45;18.80;1.40
2174;DHT22;1093;51.424;11.764;2023-05-10T14:36:12;18.80;1.40
2174;DHT22;1093;51.424;11.764;2023-05-10T14:38:39;18.80;1.40
2174;DHT22;1093;51.424;11.764;2023-05-10T14:41:06;18.90;1.40
2174;DHT22;1093;51.424;11.764;2023-05-10T14:43:33;18.90;1.40
2174;DHT22;1093;51.424;11.764;2023-05-10T14:46:00;18.90;1.40
2174;DHT22;1093;51.424;11.764;2023-05-10T14:48:28;18.90;1.40
2174;DHT22;1093;51.424;11.764;2023-05-10T14:50:55;18.90;1.40
2174;DHT22;1093;51.424;11.764;2023-05-10T14:53:22;19.00;1.40
2174;DHT22;1093;51.424;11.764;2023-05-10T14:55:49;19.00;1.40
2174;DHT22;1093;51.424;11.764;2023-05-10T14:58:15;19.00;1.40
2174;DHT22;1093;51.424;11.764;2023-05-10T15:00:42;19.00;1.40
2174;DHT22;1093;51.424;11.764;2023-05-10T15:03:10;19.00;1.40
2174;DHT22;1093;51.424;11.764;2023-05-10T15:05:38;19.00;1.40
2174;DHT22;1093;51.424;11.764;2023-05-10T15:08:05;19.00;1.40
2174;DHT22;1093;51.424;11.764;2023-05-10T15:10:31;19.00;1.40
2174;DHT22;1093;51.424;11.764;2023-05-10T15:12:59;19.00;1.40
2174;DHT22;1093;51.424;11.764;2023-05-10T15:15:26;19.00;1.40
2174;DHT22;1093;51.424;11.764;2023-05-10T15:17:52;19.00;1.40
2174;DHT22;1093;51.424;11.764;2023-05-10T15:20:19;18.90;1.40
2174;DHT22;1093;51.424;11.764;2023-05-10T15:22:47;18.90;1.40
2174;DHT22;1093;51.424;11.764;2023-05-10T15:25:13;18.90;1.40
2174;DHT22;1093;51.424;11.764;2023-05-10T15:27:41;18.80;1.40
2174;DHT22;1093;51.424;11.764;2023-05-10T15:30:09;18.80;1.40
2174;DHT22;1093;51.424;11.764;2023-05-10T15:32:36;18.80;1.40
2174;DHT22;1093;51.424;11.764;2023-05-10T15:35:06;18.90;1.40
2174;DHT22;1093;51.424;11.764;2023-05-10T15:37:32;18.90;1.40
2174;DHT22;1093;51.424;11.764;2023-05-10T15:40:00;18.80;1.40
2174;DHT22;1093;51.424;11.764;2023-05-10T15:42:29;18.80;1.40
2174;DHT22;1093;51.424;11.764;2023-05-10T15:44:57;18.80;1.40
2174;DHT22;1093;51.424;11.764;2023-05-10T15:47:24;18.80;1.40
2174;DHT22;1093;51.424;11.764;2023-05-10T15:49:51;18.80;1.40
2174;DHT22;1093;51.424;11.764;2023-05-10T15:52:18;18.70;1.40
2174;DHT22;1093;51.424;11.764;2023-05-10T15:54:45;18.70;1.40
2174;DHT22;1093;51.424;11.764;2023-05-10T15:57:13;18.70;1.40
2174;DHT22;1093;51.424;11.764;2023-05-10T15:59:40;18.70;1.40
2174;DHT22;1093;51.424;11.764;2023-05-10T16:02:08;18.80;1.40
2174;DHT22;1093;51.424;11.764;2023-05-10T16:04:35;18.70;1.40
2174;DHT22;1093;51.424;11.764;2023-05-10T16:07:02;18.70;1.40
2174;DHT22;1093;51.424;11.764;2023-05-10T16:09:28;18.70;1.40
2174;DHT22;1093;51.424;11.764;2023-05-10T16:11:55;18.70;1.40